Time;durP1;ratioP1;P1;durP2;ratioP2;P2;SDS_P1;SDS_P2;PMS_P1;PMS_P2;Temp;Humidity;BMP_temperature;BMP_pressure;BME280_temperature;BME280_humidity;BME280_pressure;Samples;Min_cycle;Max_cycle;Signal;HPM_P1;HPM_P2
2022/04/15 00:00:11;;;;;;;11.77;4.15;;;20.50;50.70;;;;;;5988615;29;20057;-72
2022/04/15 00:03:12;;;;;;;6.95;3.28;;;20.50;50.90;;;;;;5986158;29;20592;-72
2022/04/15 00:06:13;;;;;;;9.63;3.50;;;20.40;51.00;;;;;;5986296;29;20274;-71
2022/04/15 00:09:14;;;;;;;9.60;3.08;;;20.40;51.10;;;;;;5970995;29;20031;-71
2022/04/15 00:12:27;;;;;;;6.38;2.95;;;20.40;51.00;;;;;;5986046;29;20118;-71
2022/04/15 00:15:28;;;;;;;5.55;2.95;;;20.40;51.10;;;;;;5988773;29;20453;-71
2022/04/15 00:18:29;;;;;;;7.82;2.88;;;20.40;51.10;;;;;;5983538;29;20038;-73
2022/04/15 00:21:30;;;;;;;10.63;3.38;;;20.40;51.10;;;;;;5984040;29;20492;-72
2022/04/15 00:24:30;;;;;;;7.18;3.47;;;20.40;51.80;;;;;;5984529;29;20055;-72
2022/04/15 00:27:31;;;;;;;9.43;3.20;;;20.30;51.30;;;;;;5983111;29;20046;-72
2022/04/15 00:30:32;;;;;;;9.40;3.17;;;20.30;51.40;;;;;;5983742;29;20495;-72
2022/04/15 00:33:33;;;;;;;10.00;3.70;;;20.30;51.50;;;;;;5983124;29;20046;-72
2022/04/15 00:36:34;;;;;;;7.68;3.38;;;20.20;51.60;;;;;;5969551;29;20061;-72
2022/04/15 00:39:35;;;;;;;17.45;3.60;;;20.20;51.70;;;;;;5983554;29;20473;-72
2022/04/15 00:42:36;;;;;;;14.23;3.13;;;20.20;51.70;;;;;;5983210;29;20106;-72
2022/04/15 00:45:37;;;;;;;10.38;4.10;;;20.10;51.80;;;;;;5984065;29;20042;-72
2022/04/15 00:48:38;;;;;;;13.52;3.70;;;20.10;51.90;;;;;;5983253;29;20049;-72
2022/04/15 00:51:40;;;;;;;6.30;3.15;;;20.10;52.00;;;;;;5982583;29;20503;-72
2022/04/15 00:54:44;;;;;;;10.95;3.50;;;20.00;52.00;;;;;;5986337;29;20042;-72
2022/04/15 00:57:57;;;;;;;8.95;4.00;;;20.10;52.10;;;;;;5983292;29;20039;-72
2022/04/15 01:00:59;;;;;;;6.75;3.30;;;20.00;52.20;;;;;;5982205;29;20065;-72
2022/04/15 01:04:03;;;;;;;6.93;3.28;;;20.00;52.30;;;;;;5952834;29;20481;-73
2022/04/15 01:07:07;;;;;;;9.27;4.82;;;19.90;52.40;;;;;;5983544;29;20050;-72
2022/04/15 01:10:11;;;;;;;7.38;3.40;;;19.80;52.60;;;;;;5983254;29;20046;-72
2022/04/15 01:13:13;;;;;;;14.60;3.45;;;19.80;52.80;;;;;;5983731;29;20046;-72
2022/04/15 01:16:14;;;;;;;16.35;4.03;;;19.70;53.00;;;;;;5967571;29;20046;-72
2022/04/15 01:19:15;;;;;;;8.13;3.55;;;19.70;53.20;;;;;;5982651;29;20678;-72
2022/04/15 01:22:21;;;;;;;6.60;3.08;;;19.60;53.30;;;;;;5982995;29;20058;-72
2022/04/15 01:25:22;;;;;;;6.45;3.47;;;19.50;53.40;;;;;;5981491;29;20038;-72
2022/04/15 01:28:23;;;;;;;6.80;3.05;;;19.50;53.40;;;;;;5983212;29;20042;-71
2022/04/15 01:31:29;;;;;;;4.78;2.90;;;19.50;53.60;;;;;;5971472;29;20047;-70
2022/04/15 01:34:31;;;;;;;7.00;2.83;;;19.40;53.70;;;;;;5981781;29;20042;-71
2022/04/15 01:37:32;;;;;;;9.25;3.35;;;19.40;53.70;;;;;;5985156;29;20087;-71
2022/04/15 01:40:33;;;;;;;8.43;3.05;;;19.40;53.90;;;;;;5967370;29;20122;-71
2022/04/15 01:43:34;;;;;;;5.45;2.72;;;19.30;53.80;;;;;;5991143;29;20117;-73
2022/04/15 01:46:35;;;;;;;15.82;3.17;;;19.30;53.80;;;;;;5982823;29;20050;-71
2022/04/15 01:49:36;;;;;;;10.98;3.58;;;19.30;53.90;;;;;;5979479;29;20046;-71
2022/04/15 01:52:38;;;;;;;9.73;3.10;;;19.20;54.00;;;;;;5984273;29;20043;-71
2022/04/15 01:55:38;;;;;;;11.00;3.13;;;19.20;54.30;;;;;;5984509;29;20118;-71
2022/04/15 01:58:39;;;;;;;7.90;3.53;;;19.20;54.40;;;;;;5984511;29;20437;-71
2022/04/15 02:01:41;;;;;;;8.10;3.33;;;19.20;54.40;;;;;;5989570;29;20050;-71
2022/04/15 02:04:42;;;;;;;14.48;4.10;;;19.10;54.60;;;;;;5983098;29;20128;-72
2022/04/15 02:07:42;;;;;;;6.80;2.90;;;19.00;54.60;;;;;;5982955;29;20476;-71
2022/04/15 02:10:43;;;;;;;12.02;3.47;;;19.00;54.70;;;;;;5982727;29;20058;-72
2022/04/15 02:13:44;;;;;;;10.45;3.38;;;19.00;54.70;;;;;;5993131;29;20057;-72
2022/04/15 02:16:48;;;;;;;9.70;3.53;;;19.00;54.80;;;;;;5993566;29;20053;-72
2022/04/15 02:19:50;;;;;;;11.48;3.10;;;19.00;54.90;;;;;;5984999;29;20113;-72
2022/04/15 02:22:54;;;;;;;13.38;3.97;;;19.00;55.00;;;;;;5988173;29;20054;-72
2022/04/15 02:25:55;;;;;;;12.00;3.72;;;18.90;55.10;;;;;;5988100;29;20045;-72
2022/04/15 02:28:56;;;;;;;9.20;3.50;;;18.90;55.20;;;;;;5986760;29;20125;-72
2022/04/15 02:31:57;;;;;;;9.05;2.92;;;18.90;55.20;;;;;;5974269;29;20044;-72
2022/04/15 02:34:58;;;;;;;9.20;3.58;;;18.90;55.20;;;;;;5987945;29;20060;-72
2022/04/15 02:37:59;;;;;;;11.23;3.60;;;18.90;55.30;;;;;;5992582;29;20042;-72
2022/04/15 02:41:01;;;;;;;10.52;3.42;;;18.90;55.40;;;;;;5986740;29;20034;-71
2022/04/15 02:44:02;;;;;;;6.43;3.53;;;18.90;55.40;;;;;;5974295;29;20097;-73
2022/04/15 02:47:04;;;;;;;6.10;3.15;;;18.90;55.50;;;;;;5993144;29;20047;-72
2022/04/15 02:50:05;;;;;;;10.55;3.75;;;18.90;55.50;;;;;;5988939;29;20525;-72
2022/04/15 02:53:07;;;;;;;12.35;3.38;;;18.90;55.60;;;;;;5988194;29;20449;-73
2022/04/15 02:56:07;;;;;;;11.27;3.35;;;18.80;55.70;;;;;;5978122;29;20042;-71
2022/04/15 02:59:08;;;;;;;8.13;3.63;;;18.80;55.80;;;;;;5990691;29;20039;-71
2022/04/15 03:02:09;;;;;;;8.85;3.72;;;18.60;55.80;;;;;;5975946;29;20039;-72
2022/04/15 03:05:11;;;;;;;11.73;4.07;;;18.70;55.90;;;;;;5988224;29;20034;-72
2022/04/15 03:08:12;;;;;;;16.85;3.85;;;18.70;56.10;;;;;;5987869;29;20042;-72
2022/04/15 03:11:12;;;;;;;6.50;3.80;;;18.70;56.10;;;;;;5987775;29;20091;-72
2022/04/15 03:14:16;;;;;;;12.27;3.92;;;18.60;56.10;;;;;;5985076;29;20077;-72
2022/04/15 03:17:17;;;;;;;9.43;3.70;;;18.60;56.20;;;;;;5976799;29;20042;-72
2022/04/15 03:20:18;;;;;;;15.05;3.75;;;18.60;56.20;;;;;;5974034;29;20058;-72
2022/04/15 03:23:20;;;;;;;14.45;3.60;;;18.50;56.40;;;;;;5973382;29;20050;-73
2022/04/15 03:26:22;;;;;;;15.73;4.47;;;18.50;56.40;;;;;;5975106;29;20046;-72
2022/04/15 03:29:23;;;;;;;8.90;3.53;;;18.50;56.50;;;;;;5975109;29;20039;-72
2022/04/15 03:32:25;;;;;;;10.65;4.18;;;18.50;56.60;;;;;;5956891;29;20464;-72
2022/04/15 03:35:26;;;;;;;11.02;3.65;;;18.50;56.60;;;;;;5974881;29;20031;-72
2022/04/15 03:38:26;;;;;;;19.55;4.25;;;18.50;56.70;;;;;;5959531;29;20083;-72
2022/04/15 03:41:27;;;;;;;6.32;3.83;;;18.40;56.70;;;;;;5964841;29;20129;-72
2022/04/15 03:44:28;;;;;;;7.45;3.75;;;18.40;56.70;;;;;;5974284;29;20035;-72
2022/04/15 03:47:29;;;;;;;10.05;4.05;;;18.40;56.80;;;;;;5971947;29;20043;-72
2022/04/15 03:50:30;;;;;;;7.65;3.95;;;18.40;57.20;;;;;;5979034;29;20038;-72
2022/04/15 03:53:31;;;;;;;13.95;3.53;;;18.40;57.30;;;;;;5976175;29;20062;-72
2022/04/15 03:56:32;;;;;;;10.18;3.75;;;18.40;57.40;;;;;;5972812;29;20461;-72
2022/04/15 03:59:33;;;;;;;11.27;4.13;;;18.40;57.40;;;;;;5971967;29;20109;-72
2022/04/15 04:02:34;;;;;;;19.00;4.28;;;18.30;57.30;;;;;;5975658;29;20050;-72
2022/04/15 04:05:35;;;;;;;11.95;4.25;;;18.40;57.30;;;;;;5972995;29;20491;-72
2022/04/15 04:08:35;;;;;;;11.82;4.15;;;18.30;57.30;;;;;;5954534;29;20047;-72
2022/04/15 04:11:36;;;;;;;6.68;4.22;;;18.30;57.30;;;;;;5972431;29;20126;-72
2022/04/15 04:14:37;;;;;;;13.95;4.60;;;18.30;57.30;;;;;;5979292;29;20057;-72
2022/04/15 04:17:38;;;;;;;7.20;4.07;;;18.30;57.40;;;;;;5986597;29;20035;-72
2022/04/15 04:20:39;;;;;;;7.95;4.43;;;18.30;57.40;;;;;;5987167;29;20175;-72
2022/04/15 04:23:40;;;;;;;8.35;3.58;;;18.30;57.50;;;;;;5971118;29;20075;-72
2022/04/15 04:26:41;;;;;;;12.30;4.70;;;18.30;57.50;;;;;;5970278;29;20085;-72
2022/04/15 04:29:42;;;;;;;7.40;3.50;;;18.30;57.60;;;;;;5986639;29;20106;-71
2022/04/15 04:32:50;;;;;;;10.35;3.92;;;18.20;57.70;;;;;;5986824;29;20677;-71
2022/04/15 04:35:51;;;;;;;10.55;4.47;;;18.20;57.80;;;;;;5986523;29;20080;-71
2022/04/15 04:38:52;;;;;;;12.60;4.20;;;18.20;57.70;;;;;;5986952;29;20149;-71
2022/04/15 04:41:53;;;;;;;9.07;3.47;;;18.20;57.70;;;;;;5992814;29;20042;-72
2022/04/15 04:44:55;;;;;;;18.13;4.45;;;18.20;57.80;;;;;;5984997;29;20510;-71
2022/04/15 04:47:57;;;;;;;8.75;3.58;;;18.20;57.80;;;;;;5986482;29;20050;-72
2022/04/15 04:50:57;;;;;;;10.93;3.97;;;18.10;57.80;;;;;;5986867;29;20474;-71
2022/04/15 04:53:58;;;;;;;11.98;4.30;;;18.00;57.90;;;;;;5970443;29;20045;-72
2022/04/15 04:57:00;;;;;;;16.90;4.30;;;18.00;58.10;;;;;;5986309;29;20042;-71
2022/04/15 05:00:02;;;;;;;8.48;4.18;;;17.80;58.20;;;;;;5987508;29;20110;-71
2022/04/15 05:03:03;;;;;;;17.13;4.63;;;17.70;58.40;;;;;;5985870;29;20084;-71
2022/04/15 05:06:04;;;;;;;6.75;3.55;;;17.60;58.60;;;;;;5986328;29;20038;-72
2022/04/15 05:09:05;;;;;;;7.47;3.63;;;17.50;58.70;;;;;;5969161;29;20129;-72
2022/04/15 05:12:06;;;;;;;9.98;4.00;;;17.50;58.90;;;;;;5984569;29;20441;-73
2022/04/15 05:15:07;;;;;;;9.05;4.53;;;17.50;58.90;;;;;;5984445;29;20141;-72
2022/04/15 05:18:08;;;;;;;14.80;4.18;;;17.50;59.00;;;;;;5985524;29;20031;-73
2022/04/15 05:21:09;;;;;;;6.85;3.63;;;17.50;59.00;;;;;;5984121;29;20133;-71
2022/04/15 05:24:10;;;;;;;15.20;3.83;;;17.50;58.90;;;;;;5986456;29;20034;-72
2022/04/15 05:27:11;;;;;;;15.52;4.28;;;17.50;59.00;;;;;;5984835;29;20046;-72
2022/04/15 05:30:12;;;;;;;12.38;4.38;;;17.50;59.00;;;;;;5991466;29;20034;-71
2022/04/15 05:33:13;;;;;;;9.43;4.32;;;17.60;59.60;;;;;;5984429;29;20125;-71
2022/04/15 05:36:13;;;;;;;11.90;4.78;;;17.60;59.00;;;;;;5984926;29;20625;-72
2022/04/15 05:39:14;;;;;;;10.40;4.50;;;17.60;58.90;;;;;;5989404;29;20053;-72
2022/04/15 05:42:15;;;;;;;11.02;4.30;;;17.70;58.90;;;;;;5984109;29;20433;-72
2022/04/15 05:45:16;;;;;;;13.57;4.35;;;17.80;58.90;;;;;;5983321;29;20506;-72
2022/04/15 05:48:17;;;;;;;11.65;4.90;;;17.80;58.80;;;;;;5994278;29;20089;-73
2022/04/15 05:51:19;;;;;;;11.50;4.72;;;17.90;58.70;;;;;;5988351;29;20099;-73
2022/04/15 05:54:20;;;;;;;16.05;4.63;;;18.00;58.70;;;;;;5989303;29;20039;-72
2022/04/15 05:57:23;;;;;;;15.90;5.43;;;18.00;58.50;;;;;;5987842;29;20046;-72
2022/04/15 06:00:23;;;;;;;21.40;6.82;;;18.10;58.60;;;;;;5975673;29;20137;-73
2022/04/15 06:03:25;;;;;;;11.60;5.97;;;18.10;58.60;;;;;;5988015;29;20039;-71
2022/04/15 06:06:27;;;;;;;19.95;5.63;;;18.10;58.60;;;;;;5987480;29;20498;-71
2022/04/15 06:09:27;;;;;;;11.68;5.75;;;18.10;58.60;;;;;;5987069;29;20481;-71
2022/04/15 06:15:58;;;;;;;23.88;7.07;;;18.10;58.50;;;;;;5988770;29;20056;-72
2022/04/15 06:18:59;;;;;;;15.18;6.03;;;18.20;58.40;;;;;;5990172;29;20368;-72
2022/04/15 06:22:00;;;;;;;15.68;5.80;;;18.30;58.40;;;;;;5971206;29;20509;-72
2022/04/15 06:25:01;;;;;;;13.70;5.30;;;18.30;58.30;;;;;;5986186;29;20041;-72
2022/04/15 06:28:02;;;;;;;14.48;5.40;;;18.40;58.80;;;;;;5986586;29;20110;-71
2022/04/15 06:31:03;;;;;;;7.63;5.10;;;18.40;58.20;;;;;;5993087;29;20114;-70
2022/04/15 06:34:04;;;;;;;16.25;5.45;;;18.40;58.10;;;;;;5994966;29;20511;-71
2022/04/15 06:37:05;;;;;;;12.73;6.03;;;18.50;58.10;;;;;;5988321;29;20117;-69
2022/04/15 06:40:06;;;;;;;17.50;6.53;;;18.50;58.00;;;;;;5984624;29;20038;-70
2022/04/15 06:43:08;;;;;;;16.20;5.95;;;18.50;58.10;;;;;;5970989;29;20113;-69
2022/04/15 06:46:09;;;;;;;14.95;5.95;;;18.50;58.10;;;;;;5987059;29;20564;-70
2022/04/15 06:49:10;;;;;;;12.43;5.07;;;18.50;58.00;;;;;;5987040;29;20041;-70
2022/04/15 06:52:12;;;;;;;13.70;6.35;;;18.60;58.00;;;;;;5969705;29;20043;-70
2022/04/15 06:55:13;;;;;;;11.77;4.70;;;18.70;58.00;;;;;;5985999;29;20121;-70
2022/04/15 06:58:14;;;;;;;11.90;5.53;;;18.70;57.80;;;;;;5984402;29;20085;-71
2022/04/15 07:01:14;;;;;;;9.68;5.30;;;18.70;57.70;;;;;;5989328;29;21374;-71
2022/04/15 07:04:16;;;;;;;13.55;5.38;;;18.80;57.70;;;;;;5987346;29;20045;-71
2022/04/15 07:07:17;;;;;;;13.73;5.63;;;18.90;57.60;;;;;;5986897;29;20050;-71
2022/04/15 07:10:18;;;;;;;12.20;6.03;;;19.00;57.40;;;;;;5987907;29;20054;-71
2022/04/15 07:13:18;;;;;;;18.55;6.63;;;19.10;57.10;;;;;;5986972;29;20181;-71
2022/04/15 07:16:19;;;;;;;13.48;6.90;;;19.20;56.90;;;;;;5986999;29;20043;-72
2022/04/15 07:19:20;;;;;;;16.65;5.90;;;19.30;56.80;;;;;;5987704;29;20476;-72
2022/04/15 07:22:21;;;;;;;14.75;6.13;;;19.50;56.60;;;;;;5987431;29;20115;-72
2022/04/15 07:25:23;;;;;;;9.15;5.30;;;19.50;56.20;;;;;;5988479;29;20098;-71
2022/04/15 07:28:24;;;;;;;20.45;5.20;;;19.60;56.10;;;;;;5987755;29;20070;-71
2022/04/15 07:31:26;;;;;;;12.45;5.43;;;19.60;56.10;;;;;;5987864;29;20043;-71
2022/04/15 07:34:28;;;;;;;13.00;5.22;;;19.70;55.90;;;;;;5986234;29;20062;-71
2022/04/15 07:37:29;;;;;;;14.02;6.40;;;19.80;55.70;;;;;;5988534;29;20102;-72
2022/04/15 07:40:29;;;;;;;8.32;5.20;;;19.90;55.40;;;;;;5993773;29;20034;-72
2022/04/15 07:43:30;;;;;;;14.00;5.38;;;20.00;55.30;;;;;;5987292;29;20422;-71
2022/04/15 07:46:32;;;;;;;14.50;5.05;;;20.10;55.10;;;;;;5971435;29;20488;-71
2022/04/15 07:49:33;;;;;;;12.35;5.15;;;20.30;54.90;;;;;;5987652;29;20117;-71
2022/04/15 07:52:35;;;;;;;6.82;4.57;;;20.40;54.60;;;;;;5972856;29;20042;-71
2022/04/15 07:55:36;;;;;;;14.80;4.80;;;20.50;54.40;;;;;;5987539;29;20054;-72
2022/04/15 07:58:37;;;;;;;11.75;4.65;;;20.60;54.00;;;;;;5977602;29;20030;-72
2022/04/15 08:01:38;;;;;;;15.13;4.35;;;20.70;53.80;;;;;;5971831;29;20058;-71
2022/04/15 08:04:41;;;;;;;10.57;4.57;;;20.80;53.40;;;;;;5956046;29;20034;-71
2022/04/15 08:07:42;;;;;;;12.13;4.82;;;20.90;53.40;;;;;;5971627;29;20126;-72
2022/04/15 08:10:43;;;;;;;13.60;4.90;;;20.90;53.10;;;;;;5970370;29;20448;-71
2022/04/15 08:13:44;;;;;;;11.95;4.88;;;21.10;52.90;;;;;;5986714;29;20057;-71
2022/04/15 08:16:45;;;;;;;16.08;5.63;;;21.20;52.60;;;;;;5986835;29;20052;-71
2022/04/15 08:19:46;;;;;;;12.10;5.18;;;21.30;52.40;;;;;;5991841;29;20049;-72
2022/04/15 08:22:47;;;;;;;16.45;4.68;;;21.40;52.10;;;;;;5971081;29;20060;-72
2022/04/15 08:25:48;;;;;;;16.60;4.75;;;21.60;51.80;;;;;;5970709;29;20064;-72
2022/04/15 08:28:49;;;;;;;14.98;5.22;;;21.70;51.50;;;;;;5986737;29;20045;-71
2022/04/15 08:31:50;;;;;;;11.73;4.90;;;21.80;51.40;;;;;;5987321;29;20158;-71
2022/04/15 08:34:50;;;;;;;13.38;5.13;;;21.90;51.10;;;;;;5971148;29;20035;-72
2022/04/15 08:37:51;;;;;;;11.15;4.90;;;22.10;51.40;;;;;;5970304;29;20508;-71
2022/04/15 08:40:56;;;;;;;17.73;4.82;;;22.20;50.60;;;;;;5985664;29;20030;-72
2022/04/15 08:43:58;;;;;;;12.27;5.18;;;22.30;50.60;;;;;;5992623;29;20401;-71
2022/04/15 08:47:02;;;;;;;17.98;4.90;;;22.40;50.30;;;;;;5986484;29;20053;-71
2022/04/15 08:50:10;;;;;;;18.00;5.05;;;22.50;50.10;;;;;;5982467;29;20063;-72
2022/04/15 08:53:11;;;;;;;12.70;5.43;;;22.70;49.90;;;;;;5962471;29;20129;-71
2022/04/15 08:56:12;;;;;;;9.55;5.40;;;22.80;49.60;;;;;;5985145;29;20034;-71
2022/04/15 08:59:14;;;;;;;10.57;4.00;;;22.80;49.40;;;;;;5969715;29;20042;-71
2022/04/15 09:02:30;;;;;;;16.85;4.82;;;22.90;49.30;;;;;;5986668;29;20483;-72
2022/04/15 09:05:31;;;;;;;8.80;5.05;;;22.90;49.10;;;;;;5969664;29;20484;-70
2022/04/15 09:08:32;;;;;;;15.30;5.32;;;23.10;48.90;;;;;;5985596;29;20062;-72
2022/04/15 09:11:36;;;;;;;17.77;5.45;;;23.10;48.60;;;;;;5985702;29;20927;-71
2022/04/15 09:14:38;;;;;;;17.63;6.00;;;23.10;48.50;;;;;;5991819;29;20076;-72
2022/04/15 09:17:41;;;;;;;14.10;5.38;;;23.20;48.50;;;;;;5990348;29;20563;-72
2022/04/15 09:20:42;;;;;;;14.98;5.65;;;23.30;48.30;;;;;;5985978;29;20050;-71
2022/04/15 09:23:46;;;;;;;16.10;5.28;;;23.30;48.10;;;;;;5982554;29;20468;-72
2022/04/15 09:26:48;;;;;;;14.00;5.25;;;23.40;48.10;;;;;;5991077;29;20066;-71
2022/04/15 09:29:51;;;;;;;21.08;4.88;;;23.40;48.10;;;;;;5985602;29;20130;-71
2022/04/15 09:32:51;;;;;;;11.48;5.10;;;23.50;47.90;;;;;;5984539;29;20050;-71
2022/04/15 09:35:55;;;;;;;10.00;4.25;;;23.50;47.60;;;;;;5984959;29;20034;-72
2022/04/15 09:39:10;;;;;;;9.13;4.32;;;23.50;47.50;;;;;;5990793;29;20490;-72
2022/04/15 09:42:13;;;;;;;13.80;4.60;;;23.50;47.40;;;;;;5985459;29;20077;-71
2022/04/15 09:45:19;;;;;;;14.38;3.92;;;23.60;47.20;;;;;;5984378;29;20055;-70
2022/04/15 09:48:20;;;;;;;10.30;3.30;;;23.70;47.00;;;;;;5985692;29;20457;-71
2022/04/15 09:51:21;;;;;;;11.75;3.65;;;23.80;46.70;;;;;;5968686;29;20043;-71
2022/04/15 09:54:27;;;;;;;9.15;3.90;;;23.80;46.40;;;;;;5984236;29;20409;-72
2022/04/15 09:57:33;;;;;;;17.52;4.07;;;23.90;46.10;;;;;;5983292;29;20077;-71
2022/04/15 10:00:36;;;;;;;10.20;3.45;;;24.00;45.90;;;;;;5951806;29;20110;-71
2022/04/15 10:03:45;;;;;;;13.90;4.05;;;24.10;45.70;;;;;;5984724;29;20520;-71
2022/04/15 10:06:45;;;;;;;;;;;24.20;45.50;;;;;;5969172;29;20035;-71
2022/04/15 10:09:47;;;;;;;14.43;3.80;;;24.30;45.30;;;;;;5973581;29;19965;-73
2022/04/15 10:12:49;;;;;;;9.10;3.10;;;24.30;45.10;;;;;;5984655;29;20122;-72
2022/04/15 10:15:51;;;;;;;9.63;3.65;;;24.40;44.90;;;;;;5957251;29;20047;-72
2022/04/15 10:18:52;;;;;;;8.45;3.45;;;24.40;44.70;;;;;;5973605;29;20381;-72
2022/04/15 10:21:53;;;;;;;9.88;3.35;;;24.50;44.50;;;;;;5975570;29;20030;-72
2022/04/15 10:24:54;;;;;;;10.73;3.53;;;24.60;44.30;;;;;;5963225;29;20039;-72
2022/04/15 10:28:11;;;;;;;6.72;2.92;;;24.70;44.10;;;;;;5974965;29;20534;-72
2022/04/15 10:31:16;;;;;;;11.30;3.33;;;24.80;43.80;;;;;;5973142;29;20520;-73
2022/04/15 10:34:19;;;;;;;11.65;3.95;;;24.90;43.50;;;;;;5978283;29;20083;-71
2022/04/15 10:37:45;;;;;;;11.02;3.38;;;25.00;43.30;;;;;;5972622;29;20046;-72
2022/04/15 10:40:46;;;;;;;14.27;3.28;;;25.10;43.20;;;;;;5958424;29;20492;-72
2022/04/15 10:44:00;;;;;;;10.65;3.28;;;25.30;43.00;;;;;;5975995;29;20049;-72
2022/04/15 10:47:19;;;;;;;14.63;3.53;;;25.60;42.40;;;;;;5958284;29;20055;-72
2022/04/15 10:50:21;;;;;;;8.32;3.25;;;26.20;41.40;;;;;;5972991;29;20449;-72
2022/04/15 10:53:23;;;;;;;15.32;3.28;;;26.80;40.40;;;;;;5970155;29;20056;-73
2022/04/15 10:56:25;;;;;;;12.20;2.95;;;27.20;39.60;;;;;;5972874;29;20133;-73
2022/04/15 11:02:56;;;;;;;13.10;3.10;;;28.10;38.30;;;;;;5968530;29;20088;-72
2022/04/15 11:06:04;;;;;;;8.98;3.15;;;28.60;37.60;;;;;;5971994;29;20034;-72
2022/04/15 11:09:15;;;;;;;15.60;3.72;;;28.90;37.30;;;;;;5971365;29;20117;-72
2022/04/15 11:12:35;;;;;;;11.32;4.00;;;29.20;36.40;;;;;;5955653;29;20046;-72
2022/04/15 11:16:03;;;;;;;10.43;3.53;;;29.50;35.70;;;;;;5970002;29;20200;-73
2022/04/15 11:19:05;;;;;;;9.20;3.20;;;29.50;34.90;;;;;;5967653;29;20153;-73
2022/04/15 11:22:08;;;;;;;7.65;4.13;;;29.50;34.90;;;;;;5973477;29;20042;-73
2022/04/15 11:25:12;;;;;;;20.70;4.20;;;29.50;35.20;;;;;;5972641;29;20058;-72
2022/04/15 11:28:17;;;;;;;10.85;3.88;;;29.60;35.50;;;;;;5970144;29;20094;-73
2022/04/15 11:31:31;;;;;;;9.48;4.25;;;29.60;35.60;;;;;;5972532;29;20034;-72
2022/04/15 11:34:32;;;;;;;7.88;4.18;;;29.80;35.50;;;;;;5973030;29;20134;-72
2022/04/15 11:37:33;;;;;;;6.75;4.18;;;29.90;35.20;;;;;;5970021;29;20058;-72
2022/04/15 11:40:35;;;;;;;12.05;4.63;;;30.00;35.00;;;;;;5971971;29;20396;-73
2022/04/15 11:43:38;;;;;;;10.13;3.83;;;30.10;34.90;;;;;;5972970;29;20061;-72
2022/04/15 11:46:43;;;;;;;13.20;4.68;;;30.10;34.90;;;;;;5972911;29;20055;-72
2022/04/15 11:49:45;;;;;;;7.15;3.95;;;30.40;34.40;;;;;;5974124;29;20039;-71
2022/04/15 11:52:46;;;;;;;7.78;4.05;;;30.50;33.80;;;;;;5956408;29;20107;-72
2022/04/15 11:55:58;;;;;;;12.68;3.95;;;30.50;33.50;;;;;;5970439;29;20054;-72
2022/04/15 11:58:59;;;;;;;8.43;3.58;;;30.50;33.40;;;;;;5967048;29;20155;-72
2022/04/15 12:02:01;;;;;;;6.53;3.28;;;30.60;33.30;;;;;;5969641;29;20558;-72
2022/04/15 12:05:02;;;;;;;9.25;4.00;;;30.70;32.90;;;;;;5971039;29;20476;-72
2022/04/15 12:08:06;;;;;;;7.32;4.05;;;31.10;32.80;;;;;;5970681;29;20057;-73
2022/04/15 12:11:06;;;;;;;13.00;4.45;;;31.50;32.20;;;;;;5957084;29;20683;-71
2022/04/15 12:14:09;;;;;;;11.93;3.60;;;31.80;31.30;;;;;;5969948;29;20050;-72
2022/04/15 12:17:14;;;;;;;12.70;4.10;;;31.80;30.90;;;;;;5972287;29;20113;-72
2022/04/15 12:20:16;;;;;;;10.75;3.55;;;31.90;30.90;;;;;;5972568;29;20062;-72
2022/04/15 12:23:17;;;;;;;7.85;3.58;;;32.20;30.50;;;;;;5955115;29;20042;-74
2022/04/15 12:26:18;;;;;;;9.52;3.50;;;32.30;30.00;;;;;;5970262;29;20490;-72
2022/04/15 12:32:44;;;;;;;9.73;3.58;;;32.70;29.70;;;;;;5968935;29;20350;-72
2022/04/15 12:36:02;;;;;;;12.25;4.47;;;33.30;29.10;;;;;;5947395;29;20059;-72
2022/04/15 12:39:04;;;;;;;5.70;2.85;;;33.60;28.60;;;;;;5969350;29;20042;-73
2022/04/15 12:42:05;;;;;;;9.57;3.30;;;33.90;28.30;;;;;;5969544;29;20053;-72
2022/04/15 12:45:09;;;;;;;12.80;3.97;;;34.20;27.90;;;;;;5970371;29;20039;-73
2022/04/15 12:48:10;;;;;;;6.75;3.47;;;34.50;27.70;;;;;;5970460;29;20153;-74
2022/04/15 12:51:11;;;;;;;7.63;3.67;;;34.60;27.40;;;;;;5969029;29;20039;-73
2022/04/15 12:54:12;;;;;;;11.05;4.10;;;34.90;27.20;;;;;;5975191;29;20050;-72
2022/04/15 12:57:19;;;;;;;10.18;3.78;;;35.30;26.80;;;;;;5968804;29;20066;-72
2022/04/15 13:00:21;;;;;;;6.63;3.10;;;35.50;26.40;;;;;;5953413;29;20164;-74
2022/04/15 13:03:24;;;;;;;9.52;3.17;;;35.50;26.30;;;;;;5970003;29;20047;-72
2022/04/15 13:06:25;;;;;;;6.40;2.97;;;35.70;26.20;;;;;;5970773;29;20144;-72
2022/04/15 13:09:26;;;;;;;11.93;3.65;;;35.90;26.10;;;;;;5970654;29;20049;-74
2022/04/15 13:12:27;;;;;;;10.95;2.97;;;36.10;25.70;;;;;;5969181;29;20091;-73
2022/04/15 13:15:28;;;;;;;6.32;3.00;;;36.20;25.60;;;;;;5960483;29;20073;-72
2022/04/15 13:18:29;;;;;;;6.43;3.03;;;36.30;25.40;;;;;;5981477;29;20039;-73
2022/04/15 13:21:29;;;;;;;6.82;3.63;;;36.40;25.30;;;;;;5959426;29;20038;-73
2022/04/15 13:24:31;;;;;;;6.63;2.80;;;36.60;25.10;;;;;;5958836;29;20343;-73
2022/04/15 13:27:32;;;;;;;10.05;3.08;;;36.70;25.10;;;;;;5957749;29;20047;-74
2022/04/15 13:30:33;;;;;;;7.03;2.97;;;37.10;24.80;;;;;;5957288;29;20342;-73
2022/04/15 13:33:34;;;;;;;18.67;3.22;;;37.30;24.60;;;;;;5957670;29;20388;-72
2022/04/15 13:36:35;;;;;;;11.27;3.22;;;37.60;24.30;;;;;;5942500;29;20054;-72
2022/04/15 13:39:36;;;;;;;5.63;2.80;;;37.80;24.00;;;;;;5958177;29;20059;-72
2022/04/15 13:42:37;;;;;;;10.90;2.85;;;37.70;23.80;;;;;;5957577;29;20043;-72
2022/04/15 13:45:38;;;;;;;6.53;2.72;;;37.60;23.90;;;;;;5958000;29;20047;-71
2022/04/15 13:48:41;;;;;;;6.28;2.78;;;37.70;23.90;;;;;;5958387;29;20202;-72
2022/04/15 13:51:42;;;;;;;8.95;2.80;;;37.80;23.80;;;;;;5958109;29;20077;-73
2022/04/15 13:58:02;;;;;;;5.80;2.50;;;38.00;23.40;;;;;;5956391;29;20264;-72
2022/04/15 14:01:03;;;;;;;11.15;2.95;;;38.00;23.30;;;;;;5980368;29;20134;-72
2022/04/15 14:04:07;;;;;;;6.35;3.10;;;37.80;23.40;;;;;;5957529;29;20043;-72
2022/04/15 14:07:08;;;;;;;10.68;3.13;;;37.70;23.40;;;;;;5979587;29;20049;-73
2022/04/15 14:10:09;;;;;;;7.28;3.08;;;37.60;23.30;;;;;;5963447;29;20445;-74
2022/04/15 14:13:12;;;;;;;9.98;2.60;;;37.20;23.70;;;;;;5984170;29;20563;-72
2022/04/15 14:16:13;;;;;;;6.00;3.13;;;36.10;24.60;;;;;;5974603;29;20445;-72
2022/04/15 14:19:15;;;;;;;5.32;2.90;;;34.90;25.70;;;;;;5973229;29;20107;-72
2022/04/15 14:22:20;;;;;;;6.40;2.72;;;34.00;26.70;;;;;;5972297;29;20043;-73
2022/04/15 14:25:21;;;;;;;8.75;3.00;;;33.20;27.50;;;;;;5971497;29;20042;-72
2022/04/15 14:28:24;;;;;;;7.90;2.90;;;32.40;28.40;;;;;;5973319;29;20046;-72
2022/04/15 14:31:26;;;;;;;14.63;3.35;;;31.60;29.30;;;;;;5973370;29;20446;-72
2022/04/15 14:34:27;;;;;;;13.98;2.92;;;30.90;30.00;;;;;;5958629;29;20038;-72
2022/04/15 14:37:29;;;;;;;9.23;3.40;;;30.40;31.60;;;;;;5972743;29;20043;-72
2022/04/15 14:40:30;;;;;;;6.10;2.85;;;29.90;31.70;;;;;;5948967;29;20107;-72
2022/04/15 14:43:36;;;;;;;8.82;3.67;;;29.60;32.20;;;;;;5963052;29;20133;-73
2022/04/15 14:46:37;;;;;;;7.95;2.80;;;29.30;32.60;;;;;;5965140;29;20046;-72
2022/04/15 14:49:37;;;;;;;7.38;3.25;;;29.00;33.10;;;;;;5965029;29;20405;-72
2022/04/15 14:52:38;;;;;;;7.07;3.22;;;28.90;33.60;;;;;;5970172;29;20049;-73
2022/04/15 14:55:39;;;;;;;6.88;2.60;;;28.80;33.90;;;;;;5987426;29;20042;-72
2022/04/15 14:58:40;;;;;;;8.50;2.75;;;28.70;34.00;;;;;;5971580;29;20059;-72
2022/04/15 15:01:41;;;;;;;6.95;3.10;;;28.60;34.10;;;;;;5964161;29;20043;-72
2022/04/15 15:04:42;;;;;;;7.43;2.65;;;28.60;34.30;;;;;;5964925;29;20035;-74
2022/04/15 15:07:43;;;;;;;7.00;2.67;;;28.50;34.40;;;;;;5964171;29;20051;-74
2022/04/15 15:10:44;;;;;;;11.57;3.25;;;28.50;34.60;;;;;;5967301;29;20058;-71
2022/04/15 15:13:45;;;;;;;11.40;2.80;;;28.50;34.80;;;;;;5968573;29;20046;-71
2022/04/15 15:16:47;;;;;;;4.97;3.00;;;28.40;34.70;;;;;;5971181;29;20046;-72
2022/04/15 15:19:48;;;;;;;6.25;2.83;;;28.50;34.80;;;;;;5985051;29;20042;-72
2022/04/15 15:22:49;;;;;;;8.90;2.63;;;28.50;34.70;;;;;;5985878;29;20066;-72
2022/04/15 15:32:29;;;;;;;9.82;3.17;;;28.50;34.80;;;;;;5962984;29;20118;-72
2022/04/15 15:35:30;;;;;;;7.90;3.17;;;28.50;34.80;;;;;;5963022;29;20416;-72
2022/04/15 15:38:31;;;;;;;10.80;3.17;;;28.50;34.90;;;;;;5963251;29;20537;-72
2022/04/15 15:41:32;;;;;;;8.73;3.05;;;28.50;35.00;;;;;;5948765;29;20141;-72
2022/04/15 15:44:33;;;;;;;12.00;2.85;;;28.50;35.00;;;;;;5984615;29;20062;-72
2022/04/15 15:47:34;;;;;;;8.63;4.28;;;28.50;35.00;;;;;;5984852;29;20384;-73
2022/04/15 15:50:42;;;;;;;11.45;3.15;;;28.50;35.00;;;;;;5984290;29;20038;-73
2022/04/15 15:53:43;;;;;;;10.63;3.13;;;28.60;35.20;;;;;;5996347;29;20437;-73
2022/04/15 15:56:47;;;;;;;6.53;3.22;;;28.70;35.10;;;;;;6006217;29;20057;-73
2022/04/15 15:59:48;;;;;;;4.80;2.90;;;29.00;34.60;;;;;;6001708;29;20042;-71